sensor_id;sensor_type;location;lat;lon;timestamp;P1;durP1;ratioP1;P2;durP2;ratioP2
39656;SDS011;25337;51.478;7.510;2023-12-14T00:00:28;25.50;;;9.57;;
39656;SDS011;25337;51.478;7.510;2023-12-14T00:02:53;24.60;;;9.57;;
39656;SDS011;25337;51.478;7.510;2023-12-14T00:05:19;24.23;;;9.10;;
39656;SDS011;25337;51.478;7.510;2023-12-14T00:07:44;23.63;;;8.95;;
39656;SDS011;25337;51.478;7.510;2023-12-14T00:10:10;26.60;;;9.95;;
39656;SDS011;25337;51.478;7.510;2023-12-14T00:12:37;27.13;;;11.73;;
39656;SDS011;25337;51.478;7.510;2023-12-14T00:15:03;28.50;;;11.38;;
39656;SDS011;25337;51.478;7.510;2023-12-14T00:17:29;26.25;;;10.68;;
39656;SDS011;25337;51.478;7.510;2023-12-14T00:19:55;32.17;;;10.73;;
39656;SDS011;25337;51.478;7.510;2023-12-14T00:22:20;35.47;;;12.48;;
39656;SDS011;25337;51.478;7.510;2023-12-14T00:24:46;33.25;;;11.55;;
39656;SDS011;25337;51.478;7.510;2023-12-14T00:27:12;32.10;;;11.82;;
39656;SDS011;25337;51.478;7.510;2023-12-14T00:29:37;29.00;;;10.23;;
39656;SDS011;25337;51.478;7.510;2023-12-14T00:32:03;30.13;;;10.60;;
39656;SDS011;25337;51.478;7.510;2023-12-14T00:34:29;29.05;;;10.02;;
39656;SDS011;25337;51.478;7.510;2023-12-14T00:36:54;30.25;;;11.45;;
39656;SDS011;25337;51.478;7.510;2023-12-14T00:39:20;33.40;;;12.18;;
39656;SDS011;25337;51.478;7.510;2023-12-14T00:41:45;27.73;;;10.65;;
39656;SDS011;25337;51.478;7.510;2023-12-14T00:44:11;27.85;;;10.52;;
39656;SDS011;25337;51.478;7.510;2023-12-14T00:46:37;24.60;;;9.70;;
39656;SDS011;25337;51.478;7.510;2023-12-14T00:49:02;23.25;;;9.85;;
39656;SDS011;25337;51.478;7.510;2023-12-14T00:51:28;23.23;;;9.02;;
39656;SDS011;25337;51.478;7.510;2023-12-14T00:53:56;21.85;;;9.10;;
39656;SDS011;25337;51.478;7.510;2023-12-14T00:56:21;20.35;;;8.18;;
39656;SDS011;25337;51.478;7.510;2023-12-14T00:58:47;21.35;;;8.20;;
39656;SDS011;25337;51.478;7.510;2023-12-14T01:01:15;21.45;;;8.10;;
39656;SDS011;25337;51.478;7.510;2023-12-14T01:03:40;17.17;;;7.05;;
39656;SDS011;25337;51.478;7.510;2023-12-14T01:06:06;16.88;;;6.88;;
39656;SDS011;25337;51.478;7.510;2023-12-14T01:08:32;17.55;;;7.38;;
39656;SDS011;25337;51.478;7.510;2023-12-14T01:10:57;15.90;;;6.93;;
39656;SDS011;25337;51.478;7.510;2023-12-14T01:13:23;14.95;;;6.05;;
39656;SDS011;25337;51.478;7.510;2023-12-14T01:15:49;18.05;;;6.78;;
39656;SDS011;25337;51.478;7.510;2023-12-14T01:18:17;18.35;;;7.25;;
39656;SDS011;25337;51.478;7.510;2023-12-14T01:20:42;17.92;;;7.57;;
39656;SDS011;25337;51.478;7.510;2023-12-14T01:23:08;18.52;;;6.68;;
39656;SDS011;25337;51.478;7.510;2023-12-14T01:25:37;18.90;;;6.88;;
39656;SDS011;25337;51.478;7.510;2023-12-14T01:28:02;20.50;;;7.55;;
39656;SDS011;25337;51.478;7.510;2023-12-14T01:30:33;21.00;;;8.20;;
39656;SDS011;25337;51.478;7.510;2023-12-14T01:32:59;19.45;;;7.32;;
39656;SDS011;25337;51.478;7.510;2023-12-14T01:35:24;20.58;;;8.07;;
39656;SDS011;25337;51.478;7.510;2023-12-14T01:37:50;19.77;;;7.25;;
39656;SDS011;25337;51.478;7.510;2023-12-14T01:40:18;25.60;;;9.07;;
39656;SDS011;25337;51.478;7.510;2023-12-14T01:42:45;35.53;;;11.63;;
39656;SDS011;25337;51.478;7.510;2023-12-14T01:45:10;37.58;;;13.40;;
39656;SDS011;25337;51.478;7.510;2023-12-14T01:47:45;38.45;;;13.38;;
39656;SDS011;25337;51.478;7.510;2023-12-14T01:50:11;47.65;;;14.77;;
39656;SDS011;25337;51.478;7.510;2023-12-14T01:52:37;53.22;;;15.95;;
39656;SDS011;25337;51.478;7.510;2023-12-14T01:55:02;54.05;;;16.88;;
39656;SDS011;25337;51.478;7.510;2023-12-14T01:57:28;54.33;;;17.02;;
39656;SDS011;25337;51.478;7.510;2023-12-14T01:59:54;79.78;;;20.73;;
39656;SDS011;25337;51.478;7.510;2023-12-14T02:02:19;79.63;;;21.30;;
39656;SDS011;25337;51.478;7.510;2023-12-14T02:04:45;93.63;;;24.20;;
39656;SDS011;25337;51.478;7.510;2023-12-14T02:07:11;74.55;;;19.70;;
39656;SDS011;25337;51.478;7.510;2023-12-14T02:09:36;80.57;;;23.67;;
39656;SDS011;25337;51.478;7.510;2023-12-14T02:12:05;78.63;;;21.80;;
39656;SDS011;25337;51.478;7.510;2023-12-14T02:14:31;78.07;;;19.48;;
39656;SDS011;25337;51.478;7.510;2023-12-14T02:16:56;60.85;;;16.90;;
39656;SDS011;25337;51.478;7.510;2023-12-14T02:19:22;59.75;;;16.60;;
39656;SDS011;25337;51.478;7.510;2023-12-14T02:21:48;55.60;;;16.40;;
39656;SDS011;25337;51.478;7.510;2023-12-14T02:24:13;46.72;;;15.65;;
39656;SDS011;25337;51.478;7.510;2023-12-14T02:26:39;49.47;;;14.73;;
39656;SDS011;25337;51.478;7.510;2023-12-14T02:29:06;47.20;;;14.73;;
39656;SDS011;25337;51.478;7.510;2023-12-14T02:31:32;47.65;;;15.43;;
39656;SDS011;25337;51.478;7.510;2023-12-14T02:33:57;43.95;;;15.00;;
39656;SDS011;25337;51.478;7.510;2023-12-14T02:36:23;41.05;;;13.77;;
39656;SDS011;25337;51.478;7.510;2023-12-14T02:38:49;44.40;;;14.02;;
39656;SDS011;25337;51.478;7.510;2023-12-14T02:41:14;41.65;;;14.73;;
39656;SDS011;25337;51.478;7.510;2023-12-14T02:43:40;41.90;;;13.98;;
39656;SDS011;25337;51.478;7.510;2023-12-14T02:46:06;38.45;;;12.93;;
39656;SDS011;25337;51.478;7.510;2023-12-14T02:48:32;41.47;;;13.68;;
39656;SDS011;25337;51.478;7.510;2023-12-14T02:50:57;43.40;;;12.95;;
39656;SDS011;25337;51.478;7.510;2023-12-14T02:53:25;42.10;;;13.65;;
39656;SDS011;25337;51.478;7.510;2023-12-14T02:55:50;45.28;;;13.68;;
39656;SDS011;25337;51.478;7.510;2023-12-14T02:58:16;42.40;;;12.27;;
39656;SDS011;25337;51.478;7.510;2023-12-14T03:00:43;43.92;;;13.60;;
39656;SDS011;25337;51.478;7.510;2023-12-14T03:03:09;41.70;;;12.95;;
39656;SDS011;25337;51.478;7.510;2023-12-14T03:05:34;34.28;;;11.50;;
39656;SDS011;25337;51.478;7.510;2023-12-14T03:08:02;35.95;;;11.00;;
39656;SDS011;25337;51.478;7.510;2023-12-14T03:10:27;40.90;;;13.30;;
39656;SDS011;25337;51.478;7.510;2023-12-14T03:12:53;44.95;;;14.15;;
39656;SDS011;25337;51.478;7.510;2023-12-14T03:15:19;47.33;;;13.73;;
39656;SDS011;25337;51.478;7.510;2023-12-14T03:17:47;49.70;;;13.80;;
39656;SDS011;25337;51.478;7.510;2023-12-14T03:20:12;50.15;;;13.90;;
39656;SDS011;25337;51.478;7.510;2023-12-14T03:22:41;48.17;;;11.98;;
39656;SDS011;25337;51.478;7.510;2023-12-14T03:25:07;46.63;;;14.43;;
39656;SDS011;25337;51.478;7.510;2023-12-14T03:27:34;44.05;;;13.95;;
39656;SDS011;25337;51.478;7.510;2023-12-14T03:30:00;49.67;;;14.90;;
39656;SDS011;25337;51.478;7.510;2023-12-14T03:32:26;53.08;;;14.80;;
39656;SDS011;25337;51.478;7.510;2023-12-14T03:34:51;52.60;;;15.32;;
39656;SDS011;25337;51.478;7.510;2023-12-14T03:37:17;56.47;;;16.13;;
39656;SDS011;25337;51.478;7.510;2023-12-14T03:39:43;50.17;;;14.55;;
39656;SDS011;25337;51.478;7.510;2023-12-14T03:42:08;51.80;;;15.98;;
39656;SDS011;25337;51.478;7.510;2023-12-14T03:44:34;59.05;;;16.73;;
39656;SDS011;25337;51.478;7.510;2023-12-14T03:47:00;54.50;;;15.02;;
39656;SDS011;25337;51.478;7.510;2023-12-14T03:49:25;50.40;;;15.05;;
39656;SDS011;25337;51.478;7.510;2023-12-14T03:51:51;52.40;;;15.18;;
39656;SDS011;25337;51.478;7.510;2023-12-14T03:54:17;52.25;;;15.05;;
39656;SDS011;25337;51.478;7.510;2023-12-14T03:56:42;57.60;;;15.13;;
39656;SDS011;25337;51.478;7.510;2023-12-14T03:59:08;55.35;;;16.35;;
39656;SDS011;25337;51.478;7.510;2023-12-14T04:01:33;59.63;;;16.30;;
39656;SDS011;25337;51.478;7.510;2023-12-14T04:04:01;61.85;;;16.58;;
39656;SDS011;25337;51.478;7.510;2023-12-14T04:06:27;70.45;;;18.30;;
39656;SDS011;25337;51.478;7.510;2023-12-14T04:08:52;56.03;;;13.38;;
39656;SDS011;25337;51.478;7.510;2023-12-14T04:11:20;50.42;;;14.70;;
39656;SDS011;25337;51.478;7.510;2023-12-14T04:13:46;62.55;;;16.70;;
39656;SDS011;25337;51.478;7.510;2023-12-14T04:16:15;52.85;;;15.77;;
39656;SDS011;25337;51.478;7.510;2023-12-14T04:18:40;49.72;;;13.10;;
39656;SDS011;25337;51.478;7.510;2023-12-14T04:21:06;48.15;;;13.23;;
39656;SDS011;25337;51.478;7.510;2023-12-14T04:23:35;45.08;;;13.55;;
39656;SDS011;25337;51.478;7.510;2023-12-14T04:26:01;52.33;;;14.02;;
39656;SDS011;25337;51.478;7.510;2023-12-14T04:28:26;58.72;;;14.43;;
39656;SDS011;25337;51.478;7.510;2023-12-14T04:30:52;55.65;;;15.15;;
39656;SDS011;25337;51.478;7.510;2023-12-14T04:33:18;52.55;;;13.60;;
39656;SDS011;25337;51.478;7.510;2023-12-14T04:35:43;49.35;;;13.52;;
39656;SDS011;25337;51.478;7.510;2023-12-14T04:38:09;46.58;;;14.10;;
39656;SDS011;25337;51.478;7.510;2023-12-14T04:40:34;36.72;;;11.43;;
39656;SDS011;25337;51.478;7.510;2023-12-14T04:43:00;34.92;;;10.93;;
39656;SDS011;25337;51.478;7.510;2023-12-14T04:45:25;35.65;;;10.88;;
39656;SDS011;25337;51.478;7.510;2023-12-14T04:47:51;35.92;;;11.07;;
39656;SDS011;25337;51.478;7.510;2023-12-14T04:50:16;35.75;;;10.63;;
39656;SDS011;25337;51.478;7.510;2023-12-14T04:52:45;37.17;;;11.13;;
39656;SDS011;25337;51.478;7.510;2023-12-14T04:55:10;34.35;;;9.48;;
39656;SDS011;25337;51.478;7.510;2023-12-14T04:57:36;33.28;;;9.52;;
39656;SDS011;25337;51.478;7.510;2023-12-14T05:00:02;33.40;;;9.57;;
39656;SDS011;25337;51.478;7.510;2023-12-14T05:02:31;36.42;;;10.18;;
39656;SDS011;25337;51.478;7.510;2023-12-14T05:04:57;24.20;;;8.70;;
39656;SDS011;25337;51.478;7.510;2023-12-14T05:07:22;30.02;;;9.77;;
39656;SDS011;25337;51.478;7.510;2023-12-14T05:09:49;26.73;;;8.90;;
39656;SDS011;25337;51.478;7.510;2023-12-14T05:12:14;32.78;;;9.48;;
39656;SDS011;25337;51.478;7.510;2023-12-14T05:14:40;35.25;;;9.63;;
39656;SDS011;25337;51.478;7.510;2023-12-14T05:17:05;25.73;;;8.50;;
39656;SDS011;25337;51.478;7.510;2023-12-14T05:19:34;31.02;;;8.18;;
39656;SDS011;25337;51.478;7.510;2023-12-14T05:22:00;33.55;;;9.20;;
39656;SDS011;25337;51.478;7.510;2023-12-14T05:24:25;28.35;;;8.13;;
39656;SDS011;25337;51.478;7.510;2023-12-14T05:26:51;30.30;;;8.88;;
39656;SDS011;25337;51.478;7.510;2023-12-14T05:29:17;36.33;;;9.10;;
39656;SDS011;25337;51.478;7.510;2023-12-14T05:31:42;28.65;;;7.90;;
39656;SDS011;25337;51.478;7.510;2023-12-14T05:34:08;32.05;;;8.45;;
39656;SDS011;25337;51.478;7.510;2023-12-14T05:36:33;25.65;;;7.97;;
39656;SDS011;25337;51.478;7.510;2023-12-14T05:39:01;25.67;;;6.57;;
39656;SDS011;25337;51.478;7.510;2023-12-14T05:41:28;26.80;;;8.32;;
39656;SDS011;25337;51.478;7.510;2023-12-14T05:43:54;25.83;;;7.72;;
39656;SDS011;25337;51.478;7.510;2023-12-14T05:46:23;23.70;;;7.03;;
39656;SDS011;25337;51.478;7.510;2023-12-14T05:48:49;25.70;;;7.68;;
39656;SDS011;25337;51.478;7.510;2023-12-14T05:51:31;27.17;;;8.90;;
39656;SDS011;25337;51.478;7.510;2023-12-14T05:53:58;19.85;;;6.32;;
39656;SDS011;25337;51.478;7.510;2023-12-14T05:56:25;27.27;;;9.70;;
39656;SDS011;25337;51.478;7.510;2023-12-14T05:58:51;22.80;;;7.57;;
39656;SDS011;25337;51.478;7.510;2023-12-14T06:01:17;24.45;;;8.38;;
39656;SDS011;25337;51.478;7.510;2023-12-14T06:03:43;23.45;;;8.77;;
39656;SDS011;25337;51.478;7.510;2023-12-14T06:06:09;28.25;;;9.32;;
39656;SDS011;25337;51.478;7.510;2023-12-14T06:08:37;31.77;;;9.52;;
39656;SDS011;25337;51.478;7.510;2023-12-14T06:11:03;33.17;;;10.27;;
39656;SDS011;25337;51.478;7.510;2023-12-14T06:13:30;36.08;;;12.23;;
39656;SDS011;25337;51.478;7.510;2023-12-14T06:15:56;32.30;;;11.10;;
39656;SDS011;25337;51.478;7.510;2023-12-14T06:18:24;30.42;;;9.80;;
39656;SDS011;25337;51.478;7.510;2023-12-14T06:20:50;31.65;;;10.00;;
39656;SDS011;25337;51.478;7.510;2023-12-14T06:23:16;32.72;;;11.13;;
39656;SDS011;25337;51.478;7.510;2023-12-14T06:25:42;32.03;;;10.40;;
39656;SDS011;25337;51.478;7.510;2023-12-14T06:28:07;33.45;;;11.98;;
39656;SDS011;25337;51.478;7.510;2023-12-14T06:30:33;35.88;;;11.32;;
39656;SDS011;25337;51.478;7.510;2023-12-14T06:32:59;30.25;;;10.75;;
39656;SDS011;25337;51.478;7.510;2023-12-14T06:35:24;35.38;;;11.65;;
39656;SDS011;25337;51.478;7.510;2023-12-14T06:37:50;31.77;;;11.13;;
39656;SDS011;25337;51.478;7.510;2023-12-14T06:40:15;33.28;;;12.00;;
39656;SDS011;25337;51.478;7.510;2023-12-14T06:42:41;38.13;;;12.13;;
39656;SDS011;25337;51.478;7.510;2023-12-14T06:45:07;32.47;;;12.30;;
39656;SDS011;25337;51.478;7.510;2023-12-14T06:47:35;38.00;;;13.40;;
39656;SDS011;25337;51.478;7.510;2023-12-14T06:50:00;32.92;;;11.77;;
39656;SDS011;25337;51.478;7.510;2023-12-14T06:52:26;37.45;;;12.73;;
39656;SDS011;25337;51.478;7.510;2023-12-14T06:54:51;36.30;;;12.50;;
39656;SDS011;25337;51.478;7.510;2023-12-14T06:57:17;34.92;;;11.90;;
39656;SDS011;25337;51.478;7.510;2023-12-14T06:59:43;36.13;;;12.85;;
39656;SDS011;25337;51.478;7.510;2023-12-14T07:02:08;41.53;;;13.88;;
39656;SDS011;25337;51.478;7.510;2023-12-14T07:04:34;44.17;;;13.13;;
39656;SDS011;25337;51.478;7.510;2023-12-14T07:06:59;37.55;;;12.25;;
39656;SDS011;25337;51.478;7.510;2023-12-14T07:09:27;43.95;;;14.65;;
39656;SDS011;25337;51.478;7.510;2023-12-14T07:11:53;34.10;;;12.02;;
39656;SDS011;25337;51.478;7.510;2023-12-14T07:14:19;39.25;;;13.07;;
39656;SDS011;25337;51.478;7.510;2023-12-14T07:16:44;45.10;;;14.10;;
39656;SDS011;25337;51.478;7.510;2023-12-14T07:19:12;36.28;;;12.63;;
39656;SDS011;25337;51.478;7.510;2023-12-14T07:21:37;34.15;;;12.48;;
39656;SDS011;25337;51.478;7.510;2023-12-14T07:24:03;40.85;;;14.60;;
39656;SDS011;25337;51.478;7.510;2023-12-14T07:26:29;35.90;;;12.80;;
39656;SDS011;25337;51.478;7.510;2023-12-14T07:28:54;33.95;;;11.98;;
39656;SDS011;25337;51.478;7.510;2023-12-14T07:31:20;37.50;;;12.77;;
39656;SDS011;25337;51.478;7.510;2023-12-14T07:33:48;33.60;;;11.05;;
39656;SDS011;25337;51.478;7.510;2023-12-14T07:36:13;34.70;;;12.10;;
39656;SDS011;25337;51.478;7.510;2023-12-14T07:38:39;34.75;;;11.95;;
39656;SDS011;25337;51.478;7.510;2023-12-14T07:41:04;32.88;;;11.93;;
39656;SDS011;25337;51.478;7.510;2023-12-14T07:43:30;40.58;;;14.43;;
39656;SDS011;25337;51.478;7.510;2023-12-14T07:45:57;41.13;;;13.35;;
39656;SDS011;25337;51.478;7.510;2023-12-14T07:48:23;41.15;;;13.32;;
39656;SDS011;25337;51.478;7.510;2023-12-14T07:50:48;40.40;;;13.63;;
39656;SDS011;25337;51.478;7.510;2023-12-14T07:53:14;38.03;;;12.57;;
39656;SDS011;25337;51.478;7.510;2023-12-14T07:55:39;47.80;;;13.85;;
39656;SDS011;25337;51.478;7.510;2023-12-14T07:58:05;41.00;;;14.80;;
39656;SDS011;25337;51.478;7.510;2023-12-14T08:00:33;39.50;;;13.63;;
39656;SDS011;25337;51.478;7.510;2023-12-14T08:02:58;34.72;;;12.05;;
39656;SDS011;25337;51.478;7.510;2023-12-14T08:05:25;36.15;;;12.88;;
39656;SDS011;25337;51.478;7.510;2023-12-14T08:07:51;43.97;;;13.90;;
39656;SDS011;25337;51.478;7.510;2023-12-14T08:10:17;44.15;;;12.85;;
39656;SDS011;25337;51.478;7.510;2023-12-14T08:12:44;43.85;;;14.45;;
39656;SDS011;25337;51.478;7.510;2023-12-14T08:15:09;39.10;;;14.13;;
39656;SDS011;25337;51.478;7.510;2023-12-14T08:17:37;41.20;;;14.15;;
39656;SDS011;25337;51.478;7.510;2023-12-14T08:20:02;45.90;;;14.43;;
39656;SDS011;25337;51.478;7.510;2023-12-14T08:22:32;44.42;;;15.13;;
39656;SDS011;25337;51.478;7.510;2023-12-14T08:24:58;50.13;;;16.80;;
39656;SDS011;25337;51.478;7.510;2023-12-14T08:27:23;49.78;;;16.13;;
39656;SDS011;25337;51.478;7.510;2023-12-14T08:29:51;48.85;;;18.00;;
39656;SDS011;25337;51.478;7.510;2023-12-14T08:32:17;51.00;;;18.30;;
39656;SDS011;25337;51.478;7.510;2023-12-14T08:34:42;45.13;;;15.20;;
39656;SDS011;25337;51.478;7.510;2023-12-14T08:37:08;51.72;;;17.15;;
39656;SDS011;25337;51.478;7.510;2023-12-14T08:39:34;51.08;;;16.60;;
39656;SDS011;25337;51.478;7.510;2023-12-14T08:41:59;52.80;;;17.65;;
39656;SDS011;25337;51.478;7.510;2023-12-14T08:44:28;54.60;;;17.02;;
39656;SDS011;25337;51.478;7.510;2023-12-14T08:46:54;61.80;;;17.85;;
39656;SDS011;25337;51.478;7.510;2023-12-14T08:49:19;54.35;;;17.55;;
39656;SDS011;25337;51.478;7.510;2023-12-14T08:51:45;55.85;;;16.33;;
39656;SDS011;25337;51.478;7.510;2023-12-14T08:54:11;49.67;;;15.45;;
39656;SDS011;25337;51.478;7.510;2023-12-14T08:56:36;46.67;;;15.50;;
39656;SDS011;25337;51.478;7.510;2023-12-14T08:59:02;44.78;;;15.05;;
39656;SDS011;25337;51.478;7.510;2023-12-14T09:01:29;41.55;;;14.80;;
39656;SDS011;25337;51.478;7.510;2023-12-14T09:03:54;38.95;;;13.93;;
39656;SDS011;25337;51.478;7.510;2023-12-14T09:06:20;41.38;;;14.80;;
39656;SDS011;25337;51.478;7.510;2023-12-14T09:08:46;38.50;;;14.13;;
39656;SDS011;25337;51.478;7.510;2023-12-14T09:11:13;41.35;;;13.30;;
39656;SDS011;25337;51.478;7.510;2023-12-14T09:13:40;40.45;;;13.88;;
39656;SDS011;25337;51.478;7.510;2023-12-14T09:16:07;39.83;;;14.25;;
39656;SDS011;25337;51.478;7.510;2023-12-14T09:18:33;41.25;;;14.68;;
39656;SDS011;25337;51.478;7.510;2023-12-14T09:20:58;41.70;;;16.02;;
39656;SDS011;25337;51.478;7.510;2023-12-14T09:23:25;36.92;;;14.73;;
39656;SDS011;25337;51.478;7.510;2023-12-14T09:25:50;42.53;;;15.60;;
39656;SDS011;25337;51.478;7.510;2023-12-14T09:28:16;41.22;;;14.40;;
39656;SDS011;25337;51.478;7.510;2023-12-14T09:30:42;41.08;;;15.55;;
39656;SDS011;25337;51.478;7.510;2023-12-14T09:33:07;39.90;;;16.05;;
39656;SDS011;25337;51.478;7.510;2023-12-14T09:35:34;35.70;;;14.05;;
39656;SDS011;25337;51.478;7.510;2023-12-14T09:38:01;34.10;;;13.60;;
39656;SDS011;25337;51.478;7.510;2023-12-14T09:40:30;40.30;;;13.20;;
39656;SDS011;25337;51.478;7.510;2023-12-14T09:42:56;38.28;;;14.88;;
39656;SDS011;25337;51.478;7.510;2023-12-14T09:45:27;40.15;;;14.23;;
39656;SDS011;25337;51.478;7.510;2023-12-14T09:47:57;38.17;;;12.63;;
39656;SDS011;25337;51.478;7.510;2023-12-14T09:50:24;34.25;;;13.35;;
39656;SDS011;25337;51.478;7.510;2023-12-14T09:52:50;37.80;;;14.82;;
39656;SDS011;25337;51.478;7.510;2023-12-14T09:55:16;36.95;;;13.88;;
39656;SDS011;25337;51.478;7.510;2023-12-14T09:57:42;37.40;;;12.95;;
39656;SDS011;25337;51.478;7.510;2023-12-14T10:00:08;41.70;;;14.90;;
39656;SDS011;25337;51.478;7.510;2023-12-14T10:02:39;33.40;;;11.90;;
39656;SDS011;25337;51.478;7.510;2023-12-14T10:05:05;40.20;;;13.80;;
39656;SDS011;25337;51.478;7.510;2023-12-14T10:07:38;43.15;;;13.48;;
39656;SDS011;25337;51.478;7.510;2023-12-14T10:10:11;37.97;;;13.10;;
39656;SDS011;25337;51.478;7.510;2023-12-14T10:13:12;41.63;;;12.90;;
39656;SDS011;25337;51.478;7.510;2023-12-14T10:15:39;41.30;;;13.35;;
39656;SDS011;25337;51.478;7.510;2023-12-14T10:18:05;39.38;;;12.75;;
39656;SDS011;25337;51.478;7.510;2023-12-14T10:20:31;39.17;;;14.15;;
39656;SDS011;25337;51.478;7.510;2023-12-14T10:22:57;41.97;;;14.68;;
39656;SDS011;25337;51.478;7.510;2023-12-14T10:25:22;36.25;;;12.68;;
39656;SDS011;25337;51.478;7.510;2023-12-14T10:27:50;42.33;;;14.05;;
39656;SDS011;25337;51.478;7.510;2023-12-14T10:30:19;43.20;;;13.95;;
39656;SDS011;25337;51.478;7.510;2023-12-14T10:32:48;44.13;;;14.48;;
39656;SDS011;25337;51.478;7.510;2023-12-14T10:35:17;47.85;;;15.10;;
39656;SDS011;25337;51.478;7.510;2023-12-14T10:37:44;48.75;;;15.48;;
39656;SDS011;25337;51.478;7.510;2023-12-14T10:40:11;46.47;;;15.10;;
39656;SDS011;25337;51.478;7.510;2023-12-14T10:42:39;50.97;;;15.68;;
39656;SDS011;25337;51.478;7.510;2023-12-14T10:45:11;52.60;;;16.42;;
39656;SDS011;25337;51.478;7.510;2023-12-14T10:47:39;51.47;;;16.17;;
39656;SDS011;25337;51.478;7.510;2023-12-14T10:50:08;50.75;;;16.42;;
39656;SDS011;25337;51.478;7.510;2023-12-14T10:52:37;48.10;;;15.32;;
39656;SDS011;25337;51.478;7.510;2023-12-14T10:55:06;45.13;;;14.20;;
39656;SDS011;25337;51.478;7.510;2023-12-14T10:57:35;43.17;;;14.80;;
39656;SDS011;25337;51.478;7.510;2023-12-14T11:00:04;53.70;;;17.05;;
39656;SDS011;25337;51.478;7.510;2023-12-14T11:02:39;44.67;;;14.98;;
39656;SDS011;25337;51.478;7.510;2023-12-14T11:05:07;48.13;;;15.55;;
39656;SDS011;25337;51.478;7.510;2023-12-14T11:07:50;45.22;;;14.70;;
39656;SDS011;25337;51.478;7.510;2023-12-14T11:10:27;46.72;;;15.40;;
39656;SDS011;25337;51.478;7.510;2023-12-14T11:13:04;49.08;;;15.63;;
39656;SDS011;25337;51.478;7.510;2023-12-14T11:15:39;57.97;;;16.52;;
39656;SDS011;25337;51.478;7.510;2023-12-14T11:23:14;43.42;;;15.40;;
39656;SDS011;25337;51.478;7.510;2023-12-14T11:25:47;46.28;;;15.40;;
39656;SDS011;25337;51.478;7.510;2023-12-14T11:28:14;46.63;;;15.13;;
39656;SDS011;25337;51.478;7.510;2023-12-14T11:30:40;43.90;;;14.45;;
39656;SDS011;25337;51.478;7.510;2023-12-14T11:33:08;44.25;;;15.88;;
39656;SDS011;25337;51.478;7.510;2023-12-14T11:35:35;44.08;;;15.75;;
39656;SDS011;25337;51.478;7.510;2023-12-14T11:38:01;45.15;;;16.70;;
39656;SDS011;25337;51.478;7.510;2023-12-14T11:40:30;50.30;;;17.48;;
39656;SDS011;25337;51.478;7.510;2023-12-14T11:42:59;49.22;;;15.98;;
39656;SDS011;25337;51.478;7.510;2023-12-14T11:45:25;51.03;;;16.85;;
39656;SDS011;25337;51.478;7.510;2023-12-14T11:47:51;46.17;;;14.50;;
39656;SDS011;25337;51.478;7.510;2023-12-14T11:50:17;50.40;;;17.55;;
39656;SDS011;25337;51.478;7.510;2023-12-14T11:52:43;48.67;;;17.13;;
39656;SDS011;25337;51.478;7.510;2023-12-14T11:55:14;44.70;;;15.55;;
39656;SDS011;25337;51.478;7.510;2023-12-14T11:57:46;51.08;;;16.60;;
39656;SDS011;25337;51.478;7.510;2023-12-14T12:00:13;48.05;;;15.88;;
39656;SDS011;25337;51.478;7.510;2023-12-14T12:02:40;45.70;;;15.30;;
39656;SDS011;25337;51.478;7.510;2023-12-14T12:05:08;54.40;;;16.90;;
39656;SDS011;25337;51.478;7.510;2023-12-14T12:07:38;50.60;;;16.83;;
39656;SDS011;25337;51.478;7.510;2023-12-14T12:12:34;48.63;;;16.33;;
39656;SDS011;25337;51.478;7.510;2023-12-14T12:15:01;51.75;;;16.50;;
39656;SDS011;25337;51.478;7.510;2023-12-14T12:17:27;50.80;;;16.98;;
39656;SDS011;25337;51.478;7.510;2023-12-14T12:19:52;41.70;;;16.25;;
39656;SDS011;25337;51.478;7.510;2023-12-14T12:22:18;55.63;;;17.88;;
39656;SDS011;25337;51.478;7.510;2023-12-14T12:24:44;50.78;;;15.43;;
39656;SDS011;25337;51.478;7.510;2023-12-14T12:27:09;49.88;;;17.15;;
39656;SDS011;25337;51.478;7.510;2023-12-14T12:29:35;50.88;;;16.75;;
39656;SDS011;25337;51.478;7.510;2023-12-14T12:32:00;52.78;;;16.65;;
39656;SDS011;25337;51.478;7.510;2023-12-14T12:34:26;48.50;;;17.23;;
39656;SDS011;25337;51.478;7.510;2023-12-14T12:36:52;53.75;;;16.02;;
39656;SDS011;25337;51.478;7.510;2023-12-14T12:39:18;49.10;;;17.00;;
39656;SDS011;25337;51.478;7.510;2023-12-14T12:41:43;50.80;;;15.88;;
39656;SDS011;25337;51.478;7.510;2023-12-14T12:44:09;49.00;;;16.05;;
39656;SDS011;25337;51.478;7.510;2023-12-14T12:46:37;43.38;;;15.25;;
39656;SDS011;25337;51.478;7.510;2023-12-14T12:49:06;39.40;;;13.93;;
39656;SDS011;25337;51.478;7.510;2023-12-14T12:51:31;47.10;;;16.38;;
39656;SDS011;25337;51.478;7.510;2023-12-14T12:53:58;49.47;;;17.23;;
39656;SDS011;25337;51.478;7.510;2023-12-14T12:56:27;47.97;;;16.00;;
39656;SDS011;25337;51.478;7.510;2023-12-14T12:58:55;51.60;;;17.75;;
39656;SDS011;25337;51.478;7.510;2023-12-14T13:01:21;52.40;;;16.58;;
39656;SDS011;25337;51.478;7.510;2023-12-14T13:03:53;50.73;;;18.47;;
39656;SDS011;25337;51.478;7.510;2023-12-14T13:06:20;50.88;;;18.50;;
39656;SDS011;25337;51.478;7.510;2023-12-14T13:08:46;51.72;;;17.27;;
39656;SDS011;25337;51.478;7.510;2023-12-14T13:11:12;55.60;;;17.73;;
39656;SDS011;25337;51.478;7.510;2023-12-14T13:13:37;54.17;;;18.35;;
39656;SDS011;25337;51.478;7.510;2023-12-14T13:16:04;66.43;;;18.10;;
39656;SDS011;25337;51.478;7.510;2023-12-14T13:18:30;58.05;;;18.08;;
39656;SDS011;25337;51.478;7.510;2023-12-14T13:20:55;66.82;;;18.38;;
39656;SDS011;25337;51.478;7.510;2023-12-14T13:23:22;55.25;;;18.88;;
39656;SDS011;25337;51.478;7.510;2023-12-14T13:25:48;57.65;;;17.77;;
39656;SDS011;25337;51.478;7.510;2023-12-14T13:28:13;53.45;;;17.60;;
39656;SDS011;25337;51.478;7.510;2023-12-14T13:30:41;54.72;;;17.10;;
39656;SDS011;25337;51.478;7.510;2023-12-14T13:33:07;49.10;;;16.40;;
39656;SDS011;25337;51.478;7.510;2023-12-14T13:35:36;45.95;;;14.90;;
39656;SDS011;25337;51.478;7.510;2023-12-14T13:38:02;48.63;;;16.00;;
39656;SDS011;25337;51.478;7.510;2023-12-14T13:40:33;47.95;;;14.90;;
39656;SDS011;25337;51.478;7.510;2023-12-14T13:42:59;49.53;;;16.83;;
39656;SDS011;25337;51.478;7.510;2023-12-14T13:45:28;50.75;;;15.80;;
39656;SDS011;25337;51.478;7.510;2023-12-14T13:47:55;46.15;;;16.50;;
39656;SDS011;25337;51.478;7.510;2023-12-14T13:50:23;50.65;;;15.65;;
39656;SDS011;25337;51.478;7.510;2023-12-14T13:52:51;46.17;;;16.15;;
39656;SDS011;25337;51.478;7.510;2023-12-14T13:55:16;50.50;;;16.17;;
39656;SDS011;25337;51.478;7.510;2023-12-14T13:57:42;55.33;;;17.08;;
39656;SDS011;25337;51.478;7.510;2023-12-14T14:00:08;53.90;;;18.38;;
39656;SDS011;25337;51.478;7.510;2023-12-14T14:02:34;45.63;;;16.02;;
39656;SDS011;25337;51.478;7.510;2023-12-14T14:04:59;56.03;;;16.77;;
39656;SDS011;25337;51.478;7.510;2023-12-14T14:07:25;47.30;;;16.98;;
39656;SDS011;25337;51.478;7.510;2023-12-14T14:09:50;50.08;;;16.77;;
39656;SDS011;25337;51.478;7.510;2023-12-14T14:12:16;52.50;;;17.25;;
39656;SDS011;25337;51.478;7.510;2023-12-14T14:14:42;53.47;;;17.23;;
39656;SDS011;25337;51.478;7.510;2023-12-14T14:17:07;55.97;;;17.83;;
39656;SDS011;25337;51.478;7.510;2023-12-14T14:19:33;54.03;;;18.17;;
39656;SDS011;25337;51.478;7.510;2023-12-14T14:21:58;53.28;;;15.68;;
39656;SDS011;25337;51.478;7.510;2023-12-14T14:24:24;53.72;;;17.55;;
39656;SDS011;25337;51.478;7.510;2023-12-14T14:26:50;54.15;;;16.60;;